Terminal Aerodrome Forecast
Issued by NWS Mt. Holly, NJ

Home | Current Version | Previous Version | Text Only | Print | Product List | Glossary On
Versions: 1 2 3 4 5 6 7 8 9 10 11 12 13 14 15 16 17 18 19 20 21 22
000
FTUS41 KPHI 271129
TAFPHL
TAF
KPHL 271129Z 2712/2818 19004KT P6SM SCT150
     FM271500 22012KT P6SM SCT050
      TEMPO 2718/2721 BKN050
     FM280000 20007KT P6SM FEW060
      TEMPO 2810/2813 6SM HZ=

USA.gov is the U.S. government's official web portal to all federal, state and local government web resources and services.